Time;durP1;ratioP1;P1;durP2;ratioP2;P2;SDS_P1;SDS_P2;PMS_P1;PMS_P2;Temp;Humidity;BMP_temperature;BMP_pressure;BME280_temperature;BME280_humidity;BME280_pressure;Samples;Min_cycle;Max_cycle;Signal;HPM_P1;HPM_P2
2023/06/16 00:01:44;;;;;;;9.82;9.52;;;15.60;99.90;;;;;;4909951;29;20236;-78
2023/06/16 00:04:17;;;;;;;10.05;9.75;;;15.50;99.90;;;;;;4909989;29;20244;-78
2023/06/16 00:06:47;;;;;;;9.98;9.68;;;15.50;99.90;;;;;;4911000;29;20228;-78
2023/06/16 00:09:14;;;;;;;9.80;9.50;;;15.40;99.90;;;;;;4911080;29;20242;-78
2023/06/16 00:11:43;;;;;;;9.80;9.50;;;15.30;99.90;;;;;;4909905;29;20261;-78
2023/06/16 00:14:14;;;;;;;10.05;9.75;;;15.30;99.90;;;;;;4911046;29;20264;-78
2023/06/16 00:16:44;;;;;;;10.10;9.80;;;15.30;99.90;;;;;;4910641;29;20232;-79
2023/06/16 00:19:13;;;;;;;10.00;9.70;;;15.20;99.90;;;;;;4910617;29;20244;-79
2023/06/16 00:21:44;;;;;;;10.40;10.10;;;15.20;99.90;;;;;;4910262;29;20228;-78
2023/06/16 00:24:12;;;;;;;10.52;10.23;;;15.10;99.90;;;;;;4909640;29;20236;-78
2023/06/16 00:26:42;;;;;;;10.23;9.93;;;15.10;99.90;;;;;;4910054;29;20319;-79
2023/06/16 00:29:10;;;;;;;10.43;10.13;;;15.10;99.90;;;;;;4915247;29;20260;-78
2023/06/16 00:31:51;;;;;;;10.65;10.35;;;15.00;99.90;;;;;;4924491;29;20231;-77
2023/06/16 00:34:18;;;;;;;10.27;9.98;;;15.00;99.90;;;;;;4925346;29;20212;-78
2023/06/16 00:36:48;;;;;;;10.25;9.95;;;14.90;99.90;;;;;;4919050;29;20267;-78
2023/06/16 00:39:17;;;;;;;10.18;9.88;;;14.90;99.90;;;;;;4910291;29;20255;-79
2023/06/16 00:41:47;;;;;;;9.95;9.65;;;14.90;99.90;;;;;;4909868;29;20319;-78
2023/06/16 00:44:17;;;;;;;10.20;9.90;;;14.80;99.90;;;;;;4909762;29;20251;-79
2023/06/16 00:46:48;;;;;;;10.23;9.93;;;14.80;99.90;;;;;;4909542;29;20240;-80
2023/06/16 00:49:16;;;;;;;10.48;10.18;;;14.80;99.90;;;;;;4908810;29;20233;-79
2023/06/16 00:51:45;;;;;;;10.43;10.13;;;14.70;99.90;;;;;;4909846;29;20252;-79
2023/06/16 00:54:13;;;;;;;10.15;9.85;;;14.70;99.90;;;;;;4909188;29;20231;-78
2023/06/16 00:56:43;;;;;;;10.40;10.10;;;14.60;99.90;;;;;;4909606;29;20240;-79
2023/06/16 00:59:15;;;;;;;10.02;9.73;;;14.60;99.90;;;;;;4909295;29;20240;-78
2023/06/16 01:01:43;;;;;;;9.88;9.57;;;14.50;99.90;;;;;;4908998;29;20232;-78
2023/06/16 01:04:21;;;;;;;10.10;9.80;;;14.50;99.90;;;;;;4908058;29;20232;-78
2023/06/16 01:06:59;;;;;;;9.65;9.35;;;14.40;99.90;;;;;;4909025;29;20238;-79
2023/06/16 01:09:37;;;;;;;9.88;9.57;;;14.40;99.90;;;;;;4909580;29;20268;-79
2023/06/16 01:12:14;;;;;;;9.80;9.50;;;14.40;99.90;;;;;;4909166;29;20244;-78
2023/06/16 01:14:56;;;;;;;9.98;9.68;;;14.40;99.90;;;;;;4909585;29;20261;-78
2023/06/16 01:17:26;;;;;;;10.33;10.03;;;14.30;99.90;;;;;;4909028;29;20244;-78
2023/06/16 01:20:09;;;;;;;9.85;9.55;;;14.30;99.90;;;;;;4908311;29;20263;-78
2023/06/16 01:22:56;;;;;;;9.68;9.38;;;14.30;99.90;;;;;;4908838;29;20244;-77
2023/06/16 01:25:38;;;;;;;9.80;9.50;;;14.20;99.90;;;;;;4909170;29;20247;-78
2023/06/16 01:28:07;;;;;;;9.50;9.20;;;14.20;99.90;;;;;;4909072;29;20287;-78
2023/06/16 01:30:42;;;;;;;9.70;9.40;;;14.20;99.90;;;;;;4909242;29;20240;-77
2023/06/16 01:33:12;;;;;;;9.50;9.20;;;14.20;99.90;;;;;;4907927;29;20319;-78
2023/06/16 01:35:41;;;;;;;9.80;9.50;;;14.10;99.90;;;;;;4909119;29;20252;-77
2023/06/16 01:38:13;;;;;;;9.70;9.40;;;14.10;99.90;;;;;;4908191;29;20295;-78
2023/06/16 01:40:43;;;;;;;9.70;9.40;;;14.10;99.90;;;;;;4907972;29;20268;-78
2023/06/16 01:43:11;;;;;;;9.75;9.45;;;14.10;99.90;;;;;;4908056;29;20251;-78
2023/06/16 01:45:39;;;;;;;9.50;9.20;;;14.00;99.90;;;;;;4907910;29;20228;-78
2023/06/16 01:48:11;;;;;;;9.93;9.63;;;14.00;99.90;;;;;;4908538;29;20236;-78
2023/06/16 01:50:38;;;;;;;9.73;9.43;;;14.00;99.90;;;;;;4908588;29;20240;-78
2023/06/16 01:53:07;;;;;;;9.93;9.63;;;13.90;99.90;;;;;;4908510;29;20248;-78
2023/06/16 01:55:36;;;;;;;9.77;9.48;;;13.90;99.90;;;;;;4908295;29;20236;-78
2023/06/16 01:58:19;;;;;;;9.60;9.30;;;13.80;99.90;;;;;;4907299;29;20231;-78
2023/06/16 02:00:54;;;;;;;9.90;9.60;;;13.70;99.90;;;;;;4908752;29;20232;-78
2023/06/16 02:03:31;;;;;;;9.60;9.30;;;13.60;99.90;;;;;;4908325;29;20240;-78
2023/06/16 02:06:03;;;;;;;9.87;9.57;;;13.60;99.90;;;;;;4908998;29;20272;-78
2023/06/16 02:08:33;;;;;;;10.00;9.70;;;13.50;99.90;;;;;;4909368;29;20224;-78
2023/06/16 02:11:01;;;;;;;9.80;9.50;;;13.50;99.90;;;;;;4908700;29;20243;-79
2023/06/16 02:13:31;;;;;;;9.50;9.20;;;13.40;99.90;;;;;;4908150;29;20244;-79
2023/06/16 02:16:00;;;;;;;10.03;9.73;;;13.40;99.90;;;;;;4908466;29;20348;-78
2023/06/16 02:18:32;;;;;;;9.83;9.53;;;13.40;99.90;;;;;;4907371;29;20244;-80
2023/06/16 02:21:00;;;;;;;10.13;9.83;;;13.30;99.90;;;;;;4908186;29;20313;-80
2023/06/16 02:23:29;;;;;;;10.30;10.00;;;13.30;99.90;;;;;;4908397;29;20244;-78
2023/06/16 02:25:59;;;;;;;10.20;9.90;;;13.20;99.90;;;;;;4908284;29;20261;-79
2023/06/16 02:28:30;;;;;;;10.30;10.00;;;13.20;99.90;;;;;;4908318;29;20232;-78
2023/06/16 02:30:58;;;;;;;10.40;10.10;;;13.10;99.90;;;;;;4908151;29;20240;-78
2023/06/16 02:33:27;;;;;;;10.37;10.07;;;13.00;99.90;;;;;;4908791;29;20315;-78
2023/06/16 02:35:55;;;;;;;10.30;10.00;;;13.00;99.90;;;;;;4907809;29;20251;-79
2023/06/16 02:38:25;;;;;;;10.13;9.83;;;13.00;99.90;;;;;;4917241;29;20224;-77
2023/06/16 02:40:55;;;;;;;9.93;9.63;;;12.90;99.90;;;;;;4923258;29;20224;-77
2023/06/16 02:43:25;;;;;;;10.53;10.23;;;13.00;99.90;;;;;;4923173;29;20228;-77
2023/06/16 02:45:56;;;;;;;10.47;10.17;;;13.00;99.90;;;;;;4913743;29;20295;-78
2023/06/16 02:48:23;;;;;;;10.67;10.37;;;13.00;99.90;;;;;;4908622;29;20315;-78
2023/06/16 02:50:53;;;;;;;10.60;10.30;;;13.00;99.90;;;;;;4907572;29;20296;-78
2023/06/16 02:53:24;;;;;;;10.70;10.40;;;13.00;99.90;;;;;;4907099;29;21106;-78
2023/06/16 02:55:53;;;;;;;10.90;10.60;;;13.00;99.90;;;;;;4888673;29;20264;-78
2023/06/16 02:58:22;;;;;;;10.67;10.37;;;12.90;99.90;;;;;;4888782;29;20239;-78
2023/06/16 03:00:59;;;;;;;11.20;10.90;;;12.90;99.90;;;;;;4892904;29;20304;-78
2023/06/16 03:03:30;;;;;;;10.93;10.63;;;12.90;99.90;;;;;;4893123;29;20244;-79
2023/06/16 03:05:58;;;;;;;10.93;10.63;;;12.80;99.90;;;;;;4892998;29;20229;-78
2023/06/16 03:08:28;;;;;;;10.70;10.40;;;12.70;99.90;;;;;;4893023;29;20281;-79
2023/06/16 03:10:57;;;;;;;11.07;10.77;;;12.70;99.90;;;;;;4894206;29;20233;-77
2023/06/16 03:13:26;;;;;;;10.90;10.60;;;12.70;99.90;;;;;;4892131;29;20244;-78
2023/06/16 03:16:07;;;;;;;10.77;10.47;;;12.60;99.90;;;;;;4891553;29;20225;-80
2023/06/16 03:18:35;;;;;;;10.70;10.40;;;12.60;99.90;;;;;;4891506;29;20244;-78
2023/06/16 03:21:06;;;;;;;10.50;10.20;;;12.60;99.90;;;;;;4891186;29;20237;-78
2023/06/16 03:23:33;;;;;;;10.67;10.37;;;12.50;99.90;;;;;;4891795;29;20245;-78
2023/06/16 03:26:03;;;;;;;10.33;10.03;;;12.40;99.90;;;;;;4891260;29;20236;-78
2023/06/16 03:28:31;;;;;;;10.30;10.00;;;12.40;99.90;;;;;;4890193;29;20233;-78
2023/06/16 03:31:10;;;;;;;10.37;10.07;;;12.30;99.90;;;;;;4890652;29;20256;-79
2023/06/16 03:33:40;;;;;;;10.40;10.10;;;12.40;99.90;;;;;;4889858;29;20321;-78
2023/06/16 03:36:08;;;;;;;10.57;10.27;;;12.40;99.90;;;;;;4889997;29;20243;-78
2023/06/16 03:38:38;;;;;;;10.50;10.20;;;12.30;99.90;;;;;;4890330;29;20237;-78
2023/06/16 03:41:07;;;;;;;10.33;10.03;;;12.30;99.90;;;;;;4890588;29;20237;-78
2023/06/16 03:43:37;;;;;;;10.40;10.10;;;12.40;99.90;;;;;;4893353;29;20274;-79
2023/06/16 03:46:15;;;;;;;10.60;10.30;;;12.40;99.90;;;;;;4892899;29;20217;-79
2023/06/16 03:48:44;;;;;;;10.60;10.30;;;12.40;99.90;;;;;;4891936;29;21057;-79
2023/06/16 03:51:16;;;;;;;10.40;10.10;;;12.40;99.90;;;;;;4891685;29;20236;-79
2023/06/16 03:53:43;;;;;;;10.53;10.23;;;12.50;99.90;;;;;;4891541;29;20245;-79
2023/06/16 03:56:12;;;;;;;10.27;9.97;;;12.50;99.90;;;;;;4892229;29;20293;-79
2023/06/16 03:58:42;;;;;;;10.10;9.80;;;12.50;99.90;;;;;;4892724;29;20277;-79
2023/06/16 04:01:14;;;;;;;10.73;10.43;;;12.60;99.90;;;;;;4892282;29;20287;-80
2023/06/16 04:03:42;;;;;;;10.40;10.10;;;12.60;99.90;;;;;;4892131;29;20251;-80
2023/06/16 04:06:11;;;;;;;10.57;10.27;;;12.60;99.90;;;;;;4891266;29;20287;-79
2023/06/16 04:08:41;;;;;;;10.43;10.13;;;12.60;99.90;;;;;;4891620;29;20288;-80
2023/06/16 04:11:10;;;;;;;10.70;10.40;;;12.60;99.90;;;;;;4891233;29;20244;-79
2023/06/16 04:13:41;;;;;;;10.93;10.63;;;12.50;99.90;;;;;;4892932;29;20240;-80
2023/06/16 04:16:10;;;;;;;10.77;10.47;;;12.50;99.90;;;;;;4893302;29;20330;-79
2023/06/16 04:18:47;;;;;;;10.90;10.60;;;12.50;99.90;;;;;;4893460;29;20221;-79
2023/06/16 04:21:18;;;;;;;10.40;10.10;;;12.50;99.90;;;;;;4893862;29;20233;-80
2023/06/16 04:23:47;;;;;;;10.83;10.53;;;12.50;99.90;;;;;;4889286;29;20300;-78
2023/06/16 04:26:21;;;;;;;10.40;10.10;;;12.50;99.90;;;;;;4889767;29;20241;-79
2023/06/16 04:28:53;;;;;;;10.50;10.20;;;12.60;99.90;;;;;;4889309;29;20230;-79
2023/06/16 04:31:28;;;;;;;10.63;10.33;;;12.60;99.90;;;;;;4889200;29;20245;-78
2023/06/16 04:33:57;;;;;;;10.70;10.40;;;12.70;99.90;;;;;;4889710;29;20242;-80
2023/06/16 04:36:29;;;;;;;10.93;10.63;;;12.70;99.90;;;;;;4891438;29;21115;-80
2023/06/16 04:39:03;;;;;;;10.70;10.40;;;12.70;99.90;;;;;;4891376;29;20236;-79
2023/06/16 04:41:35;;;;;;;11.13;10.83;;;12.80;99.90;;;;;;4891164;29;20244;-79
2023/06/16 04:44:03;;;;;;;10.67;10.37;;;12.80;99.90;;;;;;4890920;29;20233;-79
2023/06/16 04:46:31;;;;;;;10.60;10.30;;;12.90;99.90;;;;;;4891452;29;20236;-80
2023/06/16 04:49:19;;;;;;;10.40;10.10;;;12.90;99.90;;;;;;4902716;29;20221;-79
2023/06/16 04:51:46;;;;;;;10.40;10.10;;;13.00;99.90;;;;;;4906817;29;20212;-79
2023/06/16 04:54:18;;;;;;;10.30;10.00;;;13.10;99.90;;;;;;5023288;23;20242;-81
2023/06/16 04:56:54;;;;;;;10.27;9.97;;;13.10;99.90;;;;;;4966057;28;20279;-81
2023/06/16 04:59:24;;;;;;;10.70;10.40;;;13.10;99.90;;;;;;4966252;28;20329;-82
2023/06/16 05:01:53;;;;;;;11.00;10.70;;;13.20;99.90;;;;;;4967188;28;20239;-81
2023/06/16 05:04:32;;;;;;;10.83;10.53;;;13.30;99.90;;;;;;4950173;28;20234;-81
2023/06/16 05:07:00;;;;;;;10.53;10.23;;;13.40;99.90;;;;;;4928157;29;20279;-81
2023/06/16 05:09:32;;;;;;;10.87;10.57;;;13.50;99.90;;;;;;4928769;29;20216;-82
2023/06/16 05:12:11;;;;;;;10.90;10.60;;;13.60;99.90;;;;;;4929130;29;20245;-82
2023/06/16 05:14:39;;;;;;;10.97;10.67;;;13.70;99.90;;;;;;4928366;29;20330;-82
2023/06/16 05:17:07;;;;;;;10.82;10.52;;;13.80;99.90;;;;;;4928138;29;20235;-82
2023/06/16 05:19:45;;;;;;;10.93;10.63;;;13.90;99.90;;;;;;4927566;29;20235;-82
2023/06/16 05:22:26;;;;;;;;;;;;;;;;;;;;;
2023/06/16 05:24:56;;;;;;;10.60;10.30;;;14.10;99.90;;;;;;4928581;29;20234;-82
2023/06/16 05:27:25;;;;;;;10.80;10.50;;;14.10;99.90;;;;;;4927898;29;20235;-82
2023/06/16 05:30:10;;;;;;;10.40;10.10;;;14.20;99.90;;;;;;4928451;29;20270;-82
2023/06/16 05:32:41;;;;;;;10.50;10.20;;;14.30;99.90;;;;;;4928300;29;20545;-82
2023/06/16 05:35:17;;;;;;;10.55;10.25;;;14.30;99.90;;;;;;4928173;29;20295;-82
2023/06/16 05:37:46;;;;;;;10.35;10.05;;;14.40;99.90;;;;;;4927933;29;20231;-82
2023/06/16 05:40:16;;;;;;;10.65;10.35;;;14.50;99.90;;;;;;4926917;29;20238;-82
2023/06/16 05:43:04;;;;;;;10.98;10.68;;;14.50;99.90;;;;;;4936132;29;20420;-81
2023/06/16 05:46:00;;;;;;;10.30;10.00;;;14.60;99.90;;;;;;4941347;28;20260;-81
2023/06/16 05:48:40;;;;;;;10.40;10.10;;;14.70;99.90;;;;;;4926974;29;20239;-81
2023/06/16 05:51:15;;;;;;;10.52;10.23;;;14.80;99.90;;;;;;4926464;29;20735;-80
2023/06/16 05:57:17;;;;;;;10.30;10.00;;;14.90;99.90;;;;;;4922304;29;20329;-81
2023/06/16 05:59:49;;;;;;;9.90;9.60;;;14.90;99.90;;;;;;4945766;29;20294;-80
2023/06/16 06:45:23;;;;;;;10.38;10.07;;;17.30;99.90;;;;;;4986778;23;20244;-83
2023/06/16 06:56:41;;;;;;;10.20;9.90;;;18.30;99.90;;;;;;4962480;28;20320;-84
2023/06/16 06:59:18;;;;;;;10.05;9.75;;;18.40;99.90;;;;;;4966318;28;20282;-84
2023/06/16 07:01:48;;;;;;;10.02;9.73;;;18.50;99.90;;;;;;4963938;28;20251;-84
2023/06/16 07:07:13;;;;;;;9.88;9.57;;;18.60;99.90;;;;;;4965161;28;20298;-84
2023/06/16 07:09:40;;;;;;;9.93;9.63;;;18.50;99.90;;;;;;4964723;28;20230;-82
2023/06/16 07:12:10;;;;;;;9.85;9.55;;;18.60;99.90;;;;;;4965688;28;20230;-81
2023/06/16 07:14:39;;;;;;;9.77;9.48;;;18.80;99.90;;;;;;4964831;28;20281;-80
2023/06/16 07:17:11;;;;;;;9.63;9.32;;;18.80;99.90;;;;;;4964680;28;20293;-83
2023/06/16 07:19:39;;;;;;;9.70;9.40;;;18.90;99.90;;;;;;4964827;28;20238;-82
2023/06/16 07:24:54;;;;;;;10.00;9.70;;;19.20;99.90;;;;;;4962385;28;20302;-81
2023/06/16 07:27:24;;;;;;;9.73;9.43;;;19.30;99.90;;;;;;4964921;28;20310;-83
2023/06/16 07:29:53;;;;;;;9.90;9.60;;;19.40;99.90;;;;;;4963921;28;20241;-78
2023/06/16 07:32:32;;;;;;;9.60;9.30;;;19.50;99.90;;;;;;4962820;28;20218;-81
2023/06/16 07:35:03;;;;;;;9.98;9.68;;;19.60;99.90;;;;;;4964632;28;20258;-82
2023/06/16 07:37:30;;;;;;;9.48;9.18;;;19.70;99.90;;;;;;4967035;28;20234;-83
2023/06/16 07:40:04;;;;;;;9.00;8.80;;;19.80;99.90;;;;;;4965880;28;20284;-83
2023/06/16 07:42:32;;;;;;;9.27;8.98;;;19.90;99.90;;;;;;4963641;28;20257;-82
2023/06/16 07:45:00;;;;;;;9.35;9.05;;;20.00;99.90;;;;;;4967637;28;20234;-82
2023/06/16 07:47:58;;;;;;;9.43;9.13;;;20.00;99.90;;;;;;4970174;28;20238;-81
2023/06/16 07:50:34;;;;;;;9.30;9.00;;;20.10;99.90;;;;;;4969882;28;20238;-83
2023/06/16 07:53:22;;;;;;;9.48;9.18;;;20.20;99.90;;;;;;4968584;28;20725;-84
2023/06/16 07:55:49;;;;;;;9.57;9.27;;;20.40;99.90;;;;;;4976395;28;20287;-80
2023/06/16 07:58:20;;;;;;;9.50;9.20;;;20.10;99.90;;;;;;4980213;28;20242;-81
2023/06/16 08:00:51;;;;;;;9.55;9.25;;;20.10;99.90;;;;;;4976648;28;20245;-82
2023/06/16 08:03:21;;;;;;;9.90;9.60;;;20.30;99.90;;;;;;4969496;28;21113;-82
2023/06/16 08:05:49;;;;;;;9.65;9.35;;;20.50;99.90;;;;;;4969079;28;20238;-83
2023/06/16 08:08:18;;;;;;;9.50;9.20;;;20.60;99.90;;;;;;4967552;28;20237;-82
2023/06/16 08:10:46;;;;;;;9.88;9.57;;;20.50;99.90;;;;;;4968007;28;20222;-82
2023/06/16 08:13:16;;;;;;;9.95;9.65;;;20.60;99.90;;;;;;4967652;28;20234;-84
2023/06/16 08:15:46;;;;;;;9.70;9.40;;;20.90;99.90;;;;;;4966920;28;20239;-84
2023/06/16 08:18:17;;;;;;;9.90;9.60;;;21.00;99.90;;;;;;4967924;28;20234;-80
2023/06/16 08:20:48;;;;;;;10.00;9.70;;;21.00;99.90;;;;;;4959889;28;20237;-84
2023/06/16 08:23:23;;;;;;;9.70;9.40;;;21.10;99.90;;;;;;4968530;28;20298;-83
2023/06/16 08:25:53;;;;;;;9.88;9.57;;;21.30;99.90;;;;;;4968510;28;20349;-82
2023/06/16 08:28:22;;;;;;;9.70;9.40;;;21.50;99.90;;;;;;4967185;28;20238;-84
2023/06/16 08:30:53;;;;;;;10.00;9.70;;;21.60;99.90;;;;;;4968639;28;20227;-83
2023/06/16 08:33:24;;;;;;;9.90;9.60;;;21.70;99.90;;;;;;4966486;28;21049;-85
2023/06/16 08:36:26;;;;;;;10.00;9.70;;;21.90;99.90;;;;;;4971507;28;20253;-86
2023/06/16 08:38:56;;;;;;;9.68;9.38;;;21.90;99.90;;;;;;4969411;28;20237;-87
2023/06/16 08:41:27;;;;;;;9.90;9.60;;;22.10;99.90;;;;;;4967005;28;20234;-83
2023/06/16 08:44:04;;;;;;;9.98;9.68;;;22.10;99.90;;;;;;4965717;28;20234;-83
2023/06/16 08:46:32;;;;;;;9.73;9.43;;;22.10;99.90;;;;;;4965654;28;20234;-85
2023/06/16 08:49:14;;;;;;;;;;;;;;;;;;;;;
2023/06/16 08:51:50;;;;;;;10.10;9.80;;;22.30;99.90;;;;;;4965947;28;20230;-84
2023/06/16 08:54:48;;;;;;;10.25;9.95;;;22.40;99.90;;;;;;4965349;28;20244;-89
2023/06/16 08:57:23;;;;;;;10.00;9.70;;;22.50;99.90;;;;;;4966358;28;20234;-89
2023/06/16 09:00:02;;;;;;;9.80;9.50;;;22.60;99.90;;;;;;4965276;28;20234;-88
2023/06/16 09:02:30;;;;;;;9.93;9.63;;;22.60;99.90;;;;;;4965680;28;20222;-83
2023/06/16 09:05:04;;;;;;;9.80;9.50;;;22.30;99.90;;;;;;4965645;28;20234;-83
2023/06/16 09:10:18;;;;;;;9.80;9.50;;;22.60;99.90;;;;;;4962938;28;20262;-82
2023/06/16 09:12:54;;;;;;;9.85;9.55;;;22.80;99.90;;;;;;4967209;28;20254;-83
2023/06/16 09:15:24;;;;;;;9.60;9.30;;;23.00;99.90;;;;;;4969419;28;20322;-82
2023/06/16 09:17:56;;;;;;;9.60;9.30;;;23.20;99.90;;;;;;4947858;28;20257;-83
2023/06/16 09:23:15;;;;;;;9.80;9.50;;;23.70;99.90;;;;;;4944542;29;20263;-84
2023/06/16 09:25:42;;;;;;;9.70;9.40;;;23.90;99.90;;;;;;4946224;29;20227;-81
2023/06/16 09:28:12;;;;;;;9.75;9.45;;;24.00;99.90;;;;;;4946689;28;20782;-83
2023/06/16 09:30:40;;;;;;;9.93;9.63;;;23.80;99.90;;;;;;4946138;29;20263;-82
2023/06/16 09:33:17;;;;;;;10.05;9.75;;;24.00;99.90;;;;;;4946191;28;20251;-85
2023/06/16 09:35:47;;;;;;;10.20;9.90;;;24.20;99.90;;;;;;4948224;29;20207;-82
2023/06/16 09:38:18;;;;;;;10.25;9.95;;;24.40;99.90;;;;;;4948905;29;20319;-84
2023/06/16 09:40:46;;;;;;;10.15;9.85;;;24.80;99.90;;;;;;4945918;29;20242;-85
2023/06/16 09:43:14;;;;;;;10.20;9.90;;;24.90;99.90;;;;;;4946255;28;20234;-81
2023/06/16 09:45:44;;;;;;;10.45;10.15;;;25.20;99.90;;;;;;4946764;28;20266;-82
2023/06/16 09:48:13;;;;;;;10.15;9.85;;;25.30;99.90;;;;;;4948002;28;20302;-82
2023/06/16 09:50:42;;;;;;;10.10;9.80;;;25.10;99.90;;;;;;4948537;29;20266;-82
2023/06/16 09:53:13;;;;;;;10.15;9.85;;;24.80;99.90;;;;;;4948080;28;20250;-82
2023/06/16 09:55:59;;;;;;;10.20;9.90;;;24.90;99.90;;;;;;4951445;29;20239;-81
2023/06/16 09:58:28;;;;;;;9.90;9.60;;;24.80;99.90;;;;;;4953632;29;20246;-81
2023/06/16 10:00:59;;;;;;;10.00;9.70;;;24.80;99.90;;;;;;4949462;29;20246;-82
2023/06/16 10:03:30;;;;;;;9.60;9.30;;;25.00;99.90;;;;;;4947012;29;20253;-84
2023/06/16 10:06:06;;;;;;;9.63;9.32;;;24.70;99.90;;;;;;4947427;29;20227;-87
2023/06/16 10:08:35;;;;;;;9.63;9.32;;;24.50;99.90;;;;;;4945921;29;20223;-85
2023/06/16 10:11:14;;;;;;;9.20;8.93;;;24.30;99.90;;;;;;4944759;28;20326;-84
2023/06/16 10:13:45;;;;;;;9.68;9.38;;;24.50;99.90;;;;;;4945039;29;20302;-84
2023/06/16 10:16:15;;;;;;;9.38;9.07;;;24.60;99.90;;;;;;4945120;29;20235;-84
2023/06/16 10:18:43;;;;;;;9.18;8.88;;;25.00;99.90;;;;;;4945541;29;20239;-84
2023/06/16 10:21:13;;;;;;;9.40;9.10;;;25.20;99.90;;;;;;4945614;28;20258;-84
2023/06/16 10:23:43;;;;;;;9.30;9.00;;;25.50;99.90;;;;;;4946514;29;20326;-85
2023/06/16 10:26:49;;;;;;;9.52;9.23;;;25.80;99.90;;;;;;4946603;29;20206;-84
2023/06/16 10:29:20;;;;;;;9.23;8.93;;;25.80;99.90;;;;;;4948421;29;20239;-83
2023/06/16 10:31:49;;;;;;;9.70;9.40;;;25.80;99.90;;;;;;4946816;29;20235;-83
2023/06/16 10:34:25;;;;;;;9.60;9.30;;;25.20;99.90;;;;;;4946486;28;20231;-83
2023/06/16 10:36:54;;;;;;;10.02;9.73;;;25.00;99.90;;;;;;4947200;29;20295;-84
2023/06/16 10:39:23;;;;;;;9.90;9.60;;;24.70;99.90;;;;;;4946790;29;20239;-84
2023/06/16 10:42:01;;;;;;;9.88;9.57;;;24.80;99.90;;;;;;4945328;29;20253;-84
2023/06/16 10:44:31;;;;;;;9.80;9.50;;;25.30;99.90;;;;;;4948319;29;20245;-83
2023/06/16 10:47:37;;;;;;;9.73;9.43;;;25.70;99.90;;;;;;4955186;29;20253;-83
2023/06/16 10:50:06;;;;;;;9.98;9.68;;;25.60;99.90;;;;;;4947075;29;20249;-83
2023/06/16 10:52:53;;;;;;;10.38;10.07;;;25.70;99.90;;;;;;4946759;29;20255;-83
2023/06/16 10:55:41;;;;;;;9.95;9.65;;;25.40;99.90;;;;;;4946958;29;20246;-83
2023/06/16 10:58:37;;;;;;;9.75;9.45;;;25.10;99.90;;;;;;4947467;29;20226;-84
2023/06/16 11:01:23;;;;;;;9.80;9.50;;;25.10;99.90;;;;;;4945983;29;20267;-84
2023/06/16 11:04:02;;;;;;;9.68;9.38;;;25.00;99.90;;;;;;4946276;29;20250;-83
2023/06/16 11:07:15;;;;;;;9.80;9.50;;;24.80;99.90;;;;;;4947418;29;20239;-86
2023/06/16 11:09:42;;;;;;;9.80;9.50;;;24.60;99.90;;;;;;4956871;23;20241;-83
2023/06/16 11:12:12;;;;;;;9.90;9.60;;;24.40;99.90;;;;;;4943266;29;20267;-83
2023/06/16 11:14:44;;;;;;;10.07;9.77;;;24.50;99.90;;;;;;4943681;29;20261;-83
2023/06/16 11:17:13;;;;;;;10.25;9.95;;;25.20;99.90;;;;;;4943849;29;20259;-80
2023/06/16 11:19:42;;;;;;;10.40;10.10;;;25.90;99.90;;;;;;4944038;28;20238;-82
2023/06/16 11:22:10;;;;;;;10.63;10.32;;;26.70;99.90;;;;;;4955468;28;20275;-81
2023/06/16 11:24:39;;;;;;;10.10;9.80;;;27.40;99.90;;;;;;4948423;28;20287;-81
2023/06/16 11:27:08;;;;;;;10.35;10.05;;;27.40;99.90;;;;;;4947957;28;20238;-81
2023/06/16 11:29:37;;;;;;;10.10;9.80;;;27.00;99.90;;;;;;4958333;28;20226;-78
2023/06/16 11:32:37;;;;;;;10.07;9.77;;;26.30;99.90;;;;;;4965328;28;20211;-79
2023/06/16 11:35:06;;;;;;;10.10;9.80;;;26.00;99.90;;;;;;4964016;28;20219;-81
2023/06/16 11:37:50;;;;;;;10.10;9.80;;;25.80;99.90;;;;;;4951353;28;20241;-82
2023/06/16 11:40:21;;;;;;;10.20;9.90;;;24.90;99.90;;;;;;4953936;28;20227;-83
2023/06/16 11:42:57;;;;;;;10.20;9.90;;;24.70;99.90;;;;;;4958940;29;20238;-81
2023/06/16 11:45:27;;;;;;;10.20;9.90;;;24.30;99.90;;;;;;4958789;29;20289;-80
2023/06/16 11:48:07;;;;;;;10.15;9.85;;;24.30;99.90;;;;;;4948964;29;20254;-82
2023/06/16 11:50:35;;;;;;;9.98;9.68;;;24.30;99.90;;;;;;4952906;29;20231;-81
2023/06/16 11:53:04;;;;;;;10.25;9.95;;;23.80;99.90;;;;;;4948714;28;20259;-83
2023/06/16 11:55:34;;;;;;;10.40;10.10;;;23.40;99.90;;;;;;4947263;29;20262;-82
2023/06/16 11:58:03;;;;;;;9.88;9.57;;;23.20;99.90;;;;;;4946937;29;20240;-81
2023/06/16 12:00:33;;;;;;;9.95;9.65;;;23.00;99.90;;;;;;4947384;29;20223;-80
2023/06/16 12:03:05;;;;;;;10.10;9.80;;;22.90;99.90;;;;;;4947673;29;20270;-81
2023/06/16 12:05:33;;;;;;;10.00;9.70;;;22.90;99.90;;;;;;4948081;29;20243;-81
2023/06/16 12:08:02;;;;;;;10.00;9.70;;;23.00;99.90;;;;;;4947602;28;20234;-80
2023/06/16 12:10:31;;;;;;;10.05;9.75;;;23.10;99.90;;;;;;4946961;29;20296;-81
2023/06/16 12:13:00;;;;;;;9.68;9.38;;;23.00;99.90;;;;;;4946821;29;20235;-80
2023/06/16 12:15:29;;;;;;;10.00;9.70;;;23.20;99.90;;;;;;4948197;29;20245;-81
2023/06/16 12:17:57;;;;;;;9.98;9.68;;;23.30;99.90;;;;;;4948136;29;20227;-82
2023/06/16 12:20:30;;;;;;;10.13;9.82;;;23.80;99.90;;;;;;4948847;29;20231;-83
2023/06/16 12:22:59;;;;;;;10.25;9.95;;;24.40;99.90;;;;;;4948065;28;20298;-82
2023/06/16 12:25:29;;;;;;;10.40;10.10;;;24.80;99.90;;;;;;4947408;29;20264;-83
2023/06/16 12:27:59;;;;;;;10.45;10.15;;;25.10;99.90;;;;;;4947168;28;20227;-81
2023/06/16 12:30:37;;;;;;;10.30;10.00;;;25.50;99.90;;;;;;4948372;29;20241;-82
2023/06/16 12:33:15;;;;;;;10.07;9.77;;;25.60;99.90;;;;;;4949083;29;20235;-82
2023/06/16 12:35:47;;;;;;;10.40;10.10;;;26.10;99.90;;;;;;4948366;28;20235;-82
2023/06/16 12:38:15;;;;;;;10.52;10.23;;;26.50;99.90;;;;;;4948883;29;20243;-81
2023/06/16 12:40:43;;;;;;;10.20;9.90;;;26.50;99.90;;;;;;4949380;29;20230;-82
2023/06/16 12:43:24;;;;;;;10.57;10.27;;;26.60;99.90;;;;;;4948299;28;20247;-82
2023/06/16 12:45:52;;;;;;;10.40;10.10;;;26.10;99.90;;;;;;4948535;29;20235;-82
2023/06/16 12:48:21;;;;;;;10.30;10.00;;;26.00;99.90;;;;;;4948595;29;20247;-82
2023/06/16 12:50:52;;;;;;;10.45;10.15;;;26.00;99.90;;;;;;4948243;29;20242;-82
2023/06/16 12:53:20;;;;;;;10.48;10.18;;;26.20;99.90;;;;;;4948532;29;20270;-82
2023/06/16 12:55:49;;;;;;;10.50;10.20;;;26.40;99.90;;;;;;4948966;29;20235;-82
2023/06/16 12:58:18;;;;;;;10.90;10.60;;;26.60;99.90;;;;;;4948620;29;20254;-82
2023/06/16 13:00:47;;;;;;;10.95;10.65;;;26.50;99.90;;;;;;4949192;29;20230;-82
2023/06/16 13:03:17;;;;;;;10.88;10.57;;;26.20;99.90;;;;;;4949463;29;20247;-82
2023/06/16 13:05:46;;;;;;;10.68;10.38;;;25.80;99.90;;;;;;4949230;29;20231;-82
2023/06/16 13:08:25;;;;;;;11.20;10.90;;;25.70;99.90;;;;;;4947007;28;20245;-81
2023/06/16 13:10:54;;;;;;;10.00;9.70;;;25.80;99.90;;;;;;4947380;28;20234;-82
2023/06/16 13:13:23;;;;;;;10.10;9.80;;;26.10;99.90;;;;;;4948898;29;20281;-82
2023/06/16 13:15:53;;;;;;;10.10;9.80;;;26.20;99.90;;;;;;4955617;29;20243;-82
2023/06/16 13:18:22;;;;;;;10.20;9.90;;;26.10;99.90;;;;;;4950437;28;20239;-81
2023/06/16 13:20:52;;;;;;;9.77;9.48;;;26.00;99.90;;;;;;4950120;29;20234;-82
2023/06/16 13:23:24;;;;;;;9.90;9.60;;;26.30;99.90;;;;;;4953908;28;20227;-82
2023/06/16 13:25:51;;;;;;;10.10;9.80;;;26.80;99.90;;;;;;4953091;29;20234;-82
2023/06/16 13:28:20;;;;;;;10.30;10.00;;;26.90;99.90;;;;;;4951571;29;20299;-82
2023/06/16 13:30:49;;;;;;;10.60;10.30;;;26.20;99.90;;;;;;4949176;29;20245;-82
2023/06/16 13:33:18;;;;;;;10.30;10.00;;;25.40;99.90;;;;;;4947868;28;20235;-82
2023/06/16 13:35:48;;;;;;;10.57;10.27;;;24.20;99.90;;;;;;4949069;29;20313;-83
2023/06/16 13:38:18;;;;;;;11.00;10.70;;;22.60;99.90;;;;;;4953797;29;20238;-82
2023/06/16 13:40:50;;;;;;;10.93;10.63;;;22.10;99.90;;;;;;4955490;29;20239;-83
2023/06/16 13:43:17;;;;;;;10.80;10.50;;;21.60;99.90;;;;;;4956557;29;20276;-81
2023/06/16 13:45:46;;;;;;;10.77;10.48;;;21.40;99.90;;;;;;4958304;29;20214;-82
2023/06/16 13:48:15;;;;;;;11.00;10.70;;;21.30;99.90;;;;;;4959554;28;20207;-81
2023/06/16 13:50:45;;;;;;;10.60;10.30;;;21.20;99.90;;;;;;4961671;28;20278;-80
2023/06/16 13:53:14;;;;;;;10.10;9.80;;;21.30;99.90;;;;;;4962609;28;20211;-80
2023/06/16 13:55:44;;;;;;;10.30;10.00;;;21.60;99.90;;;;;;4961690;28;20245;-82
2023/06/16 13:58:22;;;;;;;10.10;9.80;;;22.10;99.90;;;;;;4956896;28;20326;-83
2023/06/16 14:00:51;;;;;;;10.20;9.90;;;22.90;99.90;;;;;;4953129;29;20254;-82
2023/06/16 14:03:21;;;;;;;10.70;10.40;;;23.80;99.90;;;;;;4948832;29;20274;-83
2023/06/16 14:05:51;;;;;;;10.48;10.18;;;24.70;99.90;;;;;;4948045;28;20243;-82
2023/06/16 14:08:20;;;;;;;10.00;9.70;;;25.60;99.90;;;;;;4945765;28;20243;-84
2023/06/16 14:10:50;;;;;;;10.40;10.10;;;26.30;99.90;;;;;;4944195;28;20227;-83